Latest Coastal Weather Observations for Gold Coast Seaway

IDQ60701

Issued at 8:21 pm EST Friday 29 May 2015 (issued every 10 minutes, with the page automatically refreshed every 10 minutes)

About coastal observations | Map of coastal stations | Coastal observations for QLD | Marine services | Other Formats
Station Details ID: 040764 Name: GOLD COAST SEAWAY Lat: -27.94 Lon: 153.43 Height: 2.98 m
Data from the previous 72 hours. | See also: Recent months at Gold Coast Seaway
Date/Time
EST
Temp

°C
Wind Pressure Rain
since 9am
mm
Weather Cloud Vis
km
Sea
Height
m
Swell
Dir
 
Speed
knots
Gust
knots
hPa Trend Height
m
Period
s
Dir
29/08:00pm 20.1 NW 6 7 1022.6 - 0.0 - - - - - - -
29/07:30pm 20.3 NW 6 7 1022.7 - 0.0 - - - - - - -
29/07:00pm 20.5 NW 6 7 1022.3 - 0.0 - - - - - - -
29/06:30pm 20.4 NNW 5 6 1022.2 - 0.0 - - - - - - -
29/06:00pm 20.9 N 6 7 1022.1 - 0.0 - - - - - - -
29/05:30pm 21.6 NNW 5 6 1021.9 - 0.0 - - - - - - -
29/05:00pm 22.2 N 9 10 1021.6 - 0.0 - - - - - - -
29/04:30pm 22.9 N 6 8 1021.5 - 0.0 - - - - - - -
29/04:00pm 23.8 N 6 8 1021.2 - 0.0 - - - - - - -
29/03:30pm 24.6 NW 8 10 1021.2 - 0.0 - - - - - - -
29/03:00pm 24.8 NW 9 11 1021.0 - 0.0 - - - - - - -
29/02:30pm 24.7 WNW 8 11 1021.1 - 0.0 - - - - - - -
29/02:00pm 25.0 NW 10 14 1021.0 - 0.0 - - - - - - -
29/01:30pm 24.7 WNW 11 14 1021.1 - 0.0 - - - - - - -
29/01:00pm 24.7 NW 13 16 1021.1 - 0.0 - - - - - - -
29/12:30pm 24.2 NW 11 15 1021.3 - 0.0 - - - - - - -
29/12:00pm 24.0 NW 13 15 1022.2 - 0.0 - - - - - - -
29/11:30am 24.2 NW 11 15 1022.6 - 0.0 - - - - - - -
29/11:00am 23.4 NW 10 13 1022.9 - 0.0 - - - - - - -
29/10:30am 22.8 WNW 9 12 1023.3 - 0.0 - - - - - - -
29/10:00am 22.0 WNW 9 11 1023.6 - 0.0 - - - - - - -
29/09:30am 20.6 NW 8 9 1024.1 - 0.0 - - - - - - -
29/09:00am 19.3 NW 6 8 1024.3 - 0.0 - - - - - - -
29/08:30am 18.3 NW 4 5 1024.1 - 0.0 - - - - - - -
29/08:00am 17.3 WNW 7 8 1024.0 - 0.0 - - - - - - -
29/07:30am 15.9 WNW 7 7 1023.5 - 0.0 - - - - - - -
29/07:00am 15.7 W 7 8 1023.5 - 0.0 - - - - - - -
29/06:30am 15.8 NW 5 6 1023.1 - 0.0 - - - - - - -
29/06:00am 15.5 NW 5 6 1023.0 - 0.0 - - - - - - -
29/05:30am 15.3 W 5 5 1023.1 - 0.0 - - - - - - -
29/05:00am 15.2 W 5 6 1022.8 - 0.0 - - - - - - -
29/04:30am 15.3 W 5 6 1022.7 - 0.0 - - - - - - -
29/04:00am 15.6 WNW 4 5 1022.7 - 0.0 - - - - - - -
29/03:30am 15.7 W 4 5 1022.6 - 0.0 - - - - - - -
29/03:00am 15.8 WNW 6 7 1022.8 - 0.0 - - - - - - -
29/02:30am 15.7 WSW 3 4 1022.7 - 0.0 - - - - - - -
29/02:00am 15.9 WSW 5 5 1022.9 - 0.0 - - - - - - -
29/01:30am 16.1 W 6 6 1023.2 - 0.0 - - - - - - -
29/01:00am 16.3 WNW 6 7 1023.4 - 0.0 - - - - - - -
29/12:30am 16.6 WNW 6 7 1023.3 - 0.0 - - - - - - -
29/12:00am 16.3 WNW 5 6 1023.5 - 0.0 - - - - - - -
 
Date/Time
EST
Temp

°C
Wind Pressure Rain
since 9am
mm
Weather Cloud Vis
km
Sea
Height
m
Swell
Dir
 
Speed
knots
Gust
knots
hPa Trend Height
m
Period
s
Dir
28/11:30pm 16.8 WNW 6 7 1023.9 - 0.0 - - - - - - -
28/11:00pm 16.7 WSW 5 7 1024.0 - 0.0 - - - - - - -
28/10:30pm 16.7 SW 1 4 1023.9 - 0.0 - - - - - - -
28/10:00pm 16.9 SW 6 7 1024.1 - 0.0 - - - - - - -
28/09:30pm 17.1 WSW 5 7 1024.1 - 0.0 - - - - - - -
28/09:00pm 17.3 SW 6 6 1024.1 - 0.0 - - - - - - -
28/08:30pm 17.6 SW 6 6 1023.8 - 0.0 - - - - - - -
28/08:00pm 18.0 WNW 4 5 1023.8 - 0.0 - - - - - - -
28/07:30pm 17.9 NW 4 4 1023.4 - 0.0 - - - - - - -
28/07:00pm 19.3 NNW 5 6 1023.3 - 0.0 - - - - - - -
28/06:30pm 19.7 NNE 7 8 1023.0 - 0.0 - - - - - - -
28/06:00pm 19.8 NNE 7 9 1022.7 - 0.0 - - - - - - -
28/05:30pm 20.1 NNE 7 9 1022.6 - 0.0 - - - - - - -
28/05:00pm 20.7 NE 8 9 1022.1 - 0.0 - - - - - - -
28/04:30pm 21.5 NE 8 9 1021.9 - 0.0 - - - - - - -
28/04:00pm 22.1 NE 8 9 1021.7 - 0.0 - - - - - - -
28/03:30pm 22.6 NE 8 9 1021.9 - 0.0 - - - - - - -
28/03:00pm 22.8 ENE 7 8 1021.8 - 0.0 - - - - - - -
28/02:30pm 22.6 ENE 8 9 1021.5 - 0.0 - - - - - - -
28/02:00pm 22.7 ENE 7 8 1021.7 - 0.0 - - - - - - -
28/01:30pm 22.6 ENE 7 9 1022.1 - 0.0 - - - - - - -
28/01:00pm 23.0 E 9 10 1022.4 - 0.0 - - - - - - -
28/12:30pm 22.9 E 8 10 1022.9 - 0.0 - - - - - - -
28/12:00pm 23.3 E 7 8 1023.6 - 0.0 - - - - - - -
28/11:30am 23.4 ESE 6 7 1023.8 - 0.0 - - - - - - -
28/11:00am 23.2 ESE 5 6 1024.1 - 0.0 - - - - - - -
28/10:30am 22.4 ESE 3 5 1024.4 - 0.0 - - - - - - -
28/10:00am 21.9 WSW 4 6 1024.7 - 0.0 - - - - - - -
28/09:30am 20.9 W 5 6 1024.4 - 0.0 - - - - - - -
28/09:00am 19.8 SW 5 6 1024.4 - 0.0 - - - - - - -
28/08:30am 18.4 SW 5 6 1024.6 - 0.0 - - - - - - -
28/08:00am 17.3 SW 5 8 1024.3 - 0.0 - - - - - - -
28/07:30am 16.2 SW 6 8 1023.7 - 0.0 - - - - - - -
28/07:00am 15.2 WSW 5 6 1023.5 - 0.0 - - - - - - -
28/06:30am 15.0 WSW 7 8 1023.4 - 0.0 - - - - - - -
28/06:00am 15.2 SW 7 8 1022.9 - 0.0 - - - - - - -
28/05:30am 15.2 SW 7 8 1022.9 - 0.0 - - - - - - -
28/05:00am 15.6 SW 4 6 1022.5 - 0.0 - - - - - - -
28/04:30am 16.0 SW 6 7 1022.6 - 0.0 - - - - - - -
28/04:00am 16.2 WSW 5 5 1022.6 - 0.0 - - - - - - -
28/03:30am 16.7 WNW 4 4 1022.6 - 0.0 - - - - - - -
28/03:00am 16.8 NW 4 5 1022.7 - 0.0 - - - - - - -
28/02:30am 16.4 NNW 5 8 1022.6 - 0.0 - - - - - - -
28/02:00am 16.1 WSW 6 7 1022.6 - 0.0 - - - - - - -
28/01:30am 16.0 SW 6 7 1022.8 - 0.0 - - - - - - -
28/01:00am 16.0 SW 7 10 1023.0 - 0.0 - - - - - - -
28/12:30am 16.2 SW 7 9 1023.2 - 0.0 - - - - - - -
28/12:00am 16.3 SW 6 8 1023.2 - 0.0 - - - - - - -
 
Date/Time
EST
Temp

°C
Wind Pressure Rain
since 9am
mm
Weather Cloud Vis
km
Sea
Height
m
Swell
Dir
 
Speed
knots
Gust
knots
hPa Trend Height
m
Period
s
Dir
27/11:30pm 16.4 SW 6 8 1023.4 - 0.0 - - - - - - -
27/11:00pm 16.4 SW 6 7 1023.3 - 0.0 - - - - - - -
27/10:30pm 16.4 SW 7 8 1023.3 - 0.0 - - - - - - -
27/10:00pm 16.6 SW 6 8 1023.3 - 0.0 - - - - - - -
27/09:30pm 16.5 SSW 6 8 1023.4 - 0.0 - - - - - - -
27/09:00pm 16.7 SSW 6 8 1023.5 - 0.0 - - - - - - -
27/08:30pm 16.8 SSW 4 6 1023.5 - 0.0 - - - - - - -
27/08:00pm 17.3 SW 5 6 1023.6 - 0.0 - - - - - - -
27/07:30pm 18.3 SE 7 9 1023.3 - 0.0 - - - - - - -
27/07:00pm 19.1 SE 7 8 1023.0 - 0.0 - - - - - - -
27/06:30pm 18.9 SE 7 9 1022.9 - 0.0 - - - - - - -
27/06:00pm 18.3 SE 5 6 1022.8 - 0.0 - - - - - - -
27/05:30pm 19.1 SE 6 7 1022.5 - 0.0 - - - - - - -
27/05:00pm 19.6 ESE 7 8 1022.4 - 0.0 - - - - - - -
27/04:30pm 20.1 ESE 6 8 1022.1 - 0.0 - - - - - - -
27/04:00pm 20.9 SE 8 9 1022.0 - 0.0 - - - - - - -
27/03:30pm 21.3 SE 8 10 1021.8 - 0.0 - - - - - - -
27/03:00pm 21.7 SE 10 11 1021.8 - 0.0 - - - - - - -
27/02:30pm 22.7 SE 9 11 1022.1 - 0.0 - - - - - - -
27/02:00pm 22.6 SE 10 12 1022.1 - 0.0 - - - - - - -
27/01:30pm 22.8 SSE 8 9 1022.4 - 0.0 - - - - - - -
27/01:00pm 23.1 SSE 9 10 1022.5 - 0.0 - - - - - - -
27/12:30pm 22.6 SSE 9 10 1023.1 - 0.0 - - - - - - -
27/12:00pm 21.9 SSE 10 12 1023.8 - 0.0 - - - - - - -
27/11:30am 22.1 SSE 8 10 1024.3 - 0.0 - - - - - - -
27/11:00am 21.2 SE 11 14 1024.7 - 0.0 - - - - - - -
27/10:30am 21.3 SSE 9 12 1025.2 - 0.0 - - - - - - -
27/10:00am 20.0 SSE 8 10 1025.6 - 0.0 - - - - - - -
27/09:30am 19.7 SSE 9 12 1025.6 - 0.0 - - - - - - -
27/09:00am 19.6 SE 11 15 1025.3 - 0.0 - - - - - - -
27/08:30am 19.6 SE 9 11 1025.0 - 0.0 - - - - - - -
27/08:00am 18.4 S 5 8 1024.8 - 0.0 - - - - - - -
27/07:30am 17.3 SSW 4 6 1024.6 - 0.0 - - - - - - -
27/07:00am 16.6 SW 5 7 1024.5 - 0.0 - - - - - - -
27/06:30am 16.4 SW 5 6 1024.3 - 0.0 - - - - - - -
27/06:00am 16.5 SW 5 6 1023.8 - 0.0 - - - - - - -
27/05:30am 16.7 SW 4 6 1023.7 - 0.0 - - - - - - -
27/05:00am 16.9 WSW 5 5 1023.5 - 0.0 - - - - - - -
27/04:30am 17.0 W 6 6 1023.3 - 0.0 - - - - - - -
27/04:00am 17.2 NW 5 6 1023.3 - 0.0 - - - - - - -
27/03:30am 16.6 NW 4 5 1023.6 - 0.0 - - - - - - -
27/03:00am 16.9 NW 4 6 1023.8 - 0.0 - - - - - - -
27/02:30am 17.2 NW 5 6 1024.0 - 0.0 - - - - - - -
27/02:00am 17.2 NNW 5 6 1024.1 - 0.0 - - - - - - -
27/01:30am 16.9 NW 5 7 1023.9 - 0.0 - - - - - - -
27/01:00am 16.6 W 5 6 1024.1 - 0.0 - - - - - - -
27/12:30am 16.4 WSW 5 7 1024.1 - 0.0 - - - - - - -
27/12:00am 16.7 WSW 6 7 1024.3 - 0.0 - - - - - - -
 
Date/Time
EST
Temp

°C
Wind Pressure Rain
since 9am
mm
Weather Cloud Vis
km
Sea
Height
m
Swell
Dir
 
Speed
knots
Gust
knots
hPa Trend Height
m
Period
s
Dir
26/11:30pm 16.9 SW 5 6 1024.6 - 0.0 - - - - - - -
26/11:00pm 17.2 SW 5 6 1024.8 - 0.0 - - - - - - -
26/10:30pm 17.5 SW 6 8 1025.0 - 0.0 - - - - - - -
26/10:00pm 17.4 SW 6 9 1025.6 - 0.0 - - - - - - -
26/09:30pm 17.6 SW 5 7 1025.3 - 0.0 - - - - - - -
26/09:00pm 17.4 SW 5 6 1025.2 - 0.0 - - - - - - -
26/08:30pm 17.5 SSW 6 7 1025.4 - 0.0 - - - - - - -

Other Formats:

Comma delimited format used in spreadsheet applications
http://www.bom.gov.au/fwo/IDQ60701/IDQ60701.94580.axf

JavaScript Object Notation format (JSON) in row-major order
http://www.bom.gov.au/fwo/IDQ60701/IDQ60701.94580.json